sensor_id;sensor_type;location;lat;lon;timestamp;P1;durP1;ratioP1;P2;durP2;ratioP2
35743;SDS011;21867;52.012;4.324;2023-09-18T00:00:22;22.67;;;20.43;;
35743;SDS011;21867;52.012;4.324;2023-09-18T00:05:31;24.33;;;21.73;;
35743;SDS011;21867;52.012;4.324;2023-09-18T00:07:59;25.33;;;20.67;;
35743;SDS011;21867;52.012;4.324;2023-09-18T00:10:28;22.60;;;19.00;;
35743;SDS011;21867;52.012;4.324;2023-09-18T00:12:55;24.50;;;20.30;;
35743;SDS011;21867;52.012;4.324;2023-09-18T00:15:22;23.17;;;20.87;;
35743;SDS011;21867;52.012;4.324;2023-09-18T00:27:45;23.83;;;21.27;;
35743;SDS011;21867;52.012;4.324;2023-09-18T00:30:12;25.17;;;20.17;;
35743;SDS011;21867;52.012;4.324;2023-09-18T00:35:32;22.97;;;20.67;;
35743;SDS011;21867;52.012;4.324;2023-09-18T00:38:00;22.30;;;18.70;;
35743;SDS011;21867;52.012;4.324;2023-09-18T00:40:27;25.73;;;20.97;;
35743;SDS011;21867;52.012;4.324;2023-09-18T00:42:56;23.57;;;20.40;;
35743;SDS011;21867;52.012;4.324;2023-09-18T00:45:23;23.13;;;17.87;;
35743;SDS011;21867;52.012;4.324;2023-09-18T00:50:40;21.07;;;18.83;;
35743;SDS011;21867;52.012;4.324;2023-09-18T00:53:08;22.53;;;16.87;;
35743;SDS011;21867;52.012;4.324;2023-09-18T00:55:36;23.17;;;18.23;;
35743;SDS011;21867;52.012;4.324;2023-09-18T01:05:13;24.77;;;20.10;;
35743;SDS011;21867;52.012;4.324;2023-09-18T01:07:40;21.03;;;18.93;;
35743;SDS011;21867;52.012;4.324;2023-09-18T01:10:09;20.37;;;18.10;;
35743;SDS011;21867;52.012;4.324;2023-09-18T01:12:39;20.60;;;18.23;;
35743;SDS011;21867;52.012;4.324;2023-09-18T01:15:11;17.60;;;15.77;;
35743;SDS011;21867;52.012;4.324;2023-09-18T01:17:51;23.17;;;19.80;;
35743;SDS011;21867;52.012;4.324;2023-09-18T01:20:20;20.03;;;17.53;;
35743;SDS011;21867;52.012;4.324;2023-09-18T01:22:48;19.27;;;17.30;;
35743;SDS011;21867;52.012;4.324;2023-09-18T01:25:16;20.13;;;18.13;;
35743;SDS011;21867;52.012;4.324;2023-09-18T01:34:19;22.77;;;18.63;;
35743;SDS011;21867;52.012;4.324;2023-09-18T01:36:48;22.60;;;17.37;;
35743;SDS011;21867;52.012;4.324;2023-09-18T01:39:17;22.43;;;18.73;;
35743;SDS011;21867;52.012;4.324;2023-09-18T01:41:46;20.27;;;17.37;;
35743;SDS011;21867;52.012;4.324;2023-09-18T01:44:14;22.23;;;18.13;;
35743;SDS011;21867;52.012;4.324;2023-09-18T01:46:41;18.90;;;16.70;;
35743;SDS011;21867;52.012;4.324;2023-09-18T01:49:51;20.67;;;16.20;;
35743;SDS011;21867;52.012;4.324;2023-09-18T01:52:19;17.90;;;15.93;;
35743;SDS011;21867;52.012;4.324;2023-09-18T01:54:48;19.20;;;17.17;;
35743;SDS011;21867;52.012;4.324;2023-09-18T02:03:55;21.10;;;14.80;;
35743;SDS011;21867;52.012;4.324;2023-09-18T02:06:44;17.73;;;15.20;;
35743;SDS011;21867;52.012;4.324;2023-09-18T02:09:11;18.47;;;13.60;;
35743;SDS011;21867;52.012;4.324;2023-09-18T02:11:41;17.13;;;14.50;;
35743;SDS011;21867;52.012;4.324;2023-09-18T02:14:08;15.83;;;14.27;;
35743;SDS011;21867;52.012;4.324;2023-09-18T02:16:48;11.13;;;10.03;;
35743;SDS011;21867;52.012;4.324;2023-09-18T02:19:15;15.57;;;13.07;;
35743;SDS011;21867;52.012;4.324;2023-09-18T02:21:43;16.63;;;13.23;;
35743;SDS011;21867;52.012;4.324;2023-09-18T02:24:10;13.60;;;12.20;;
35743;SDS011;21867;52.012;4.324;2023-09-18T02:26:37;15.30;;;13.10;;
35743;SDS011;21867;52.012;4.324;2023-09-18T02:35:30;14.07;;;11.30;;
35743;SDS011;21867;52.012;4.324;2023-09-18T02:37:57;14.30;;;12.07;;
35743;SDS011;21867;52.012;4.324;2023-09-18T02:40:26;12.50;;;10.60;;
35743;SDS011;21867;52.012;4.324;2023-09-18T02:42:53;13.03;;;11.57;;
35743;SDS011;21867;52.012;4.324;2023-09-18T02:45:20;14.30;;;10.93;;
35743;SDS011;21867;52.012;4.324;2023-09-18T02:47:48;12.43;;;11.13;;
35743;SDS011;21867;52.012;4.324;2023-09-18T02:50:15;15.50;;;10.63;;
35743;SDS011;21867;52.012;4.324;2023-09-18T02:52:44;11.97;;;10.77;;
35743;SDS011;21867;52.012;4.324;2023-09-18T02:55:11;12.70;;;10.60;;
35743;SDS011;21867;52.012;4.324;2023-09-18T03:00:41;16.60;;;12.17;;
35743;SDS011;21867;52.012;4.324;2023-09-18T03:03:10;15.73;;;10.73;;
35743;SDS011;21867;52.012;4.324;2023-09-18T03:05:38;13.80;;;10.97;;
35743;SDS011;21867;52.012;4.324;2023-09-18T03:08:08;13.53;;;11.50;;
35743;SDS011;21867;52.012;4.324;2023-09-18T03:10:36;12.17;;;10.93;;
35743;SDS011;21867;52.012;4.324;2023-09-18T03:13:03;14.73;;;10.63;;
35743;SDS011;21867;52.012;4.324;2023-09-18T03:18:06;14.00;;;11.13;;
35743;SDS011;21867;52.012;4.324;2023-09-18T03:20:34;13.60;;;11.43;;
35743;SDS011;21867;52.012;4.324;2023-09-18T03:23:01;13.23;;;11.77;;
35743;SDS011;21867;52.012;4.324;2023-09-18T03:25:31;15.40;;;11.40;;
35743;SDS011;21867;52.012;4.324;2023-09-18T03:28:17;21.20;;;11.10;;
35743;SDS011;21867;52.012;4.324;2023-09-18T03:38:07;12.67;;;10.97;;
35743;SDS011;21867;52.012;4.324;2023-09-18T03:40:37;12.53;;;10.07;;
35743;SDS011;21867;52.012;4.324;2023-09-18T03:43:04;14.87;;;11.93;;
35743;SDS011;21867;52.012;4.324;2023-09-18T03:45:31;16.13;;;10.13;;
35743;SDS011;21867;52.012;4.324;2023-09-18T03:47:59;14.87;;;10.17;;
35743;SDS011;21867;52.012;4.324;2023-09-18T04:07:15;13.77;;;9.27;;
35743;SDS011;21867;52.012;4.324;2023-09-18T04:09:42;13.27;;;10.00;;
35743;SDS011;21867;52.012;4.324;2023-09-18T04:12:10;13.00;;;9.07;;
35743;SDS011;21867;52.012;4.324;2023-09-18T04:14:37;9.40;;;8.50;;
35743;SDS011;21867;52.012;4.324;2023-09-18T04:17:05;13.83;;;8.60;;
35743;SDS011;21867;52.012;4.324;2023-09-18T04:36:37;13.83;;;9.37;;
35743;SDS011;21867;52.012;4.324;2023-09-18T04:39:05;14.73;;;10.50;;
35743;SDS011;21867;52.012;4.324;2023-09-18T04:41:33;10.60;;;9.57;;
35743;SDS011;21867;52.012;4.324;2023-09-18T04:44:03;13.50;;;9.13;;
35743;SDS011;21867;52.012;4.324;2023-09-18T04:46:32;10.63;;;9.47;;
35743;SDS011;21867;52.012;4.324;2023-09-18T04:49:00;10.33;;;8.47;;
35743;SDS011;21867;52.012;4.324;2023-09-18T04:51:27;9.57;;;8.47;;
35743;SDS011;21867;52.012;4.324;2023-09-18T04:53:57;13.80;;;9.90;;
35743;SDS011;21867;52.012;4.324;2023-09-18T04:56:24;13.00;;;9.47;;
35743;SDS011;21867;52.012;4.324;2023-09-18T05:01:34;11.77;;;10.60;;
35743;SDS011;21867;52.012;4.324;2023-09-18T05:04:18;8.43;;;7.57;;
35743;SDS011;21867;52.012;4.324;2023-09-18T05:06:49;8.17;;;6.73;;
35743;SDS011;21867;52.012;4.324;2023-09-18T05:09:17;9.60;;;7.47;;
35743;SDS011;21867;52.012;4.324;2023-09-18T05:11:45;10.40;;;9.33;;
35743;SDS011;21867;52.012;4.324;2023-09-18T05:14:12;10.17;;;8.37;;
35743;SDS011;21867;52.012;4.324;2023-09-18T05:16:56;11.90;;;8.67;;
35743;SDS011;21867;52.012;4.324;2023-09-18T05:20:20;13.70;;;9.43;;
35743;SDS011;21867;52.012;4.324;2023-09-18T05:22:48;10.47;;;9.47;;
35743;SDS011;21867;52.012;4.324;2023-09-18T05:25:16;11.80;;;9.27;;
35743;SDS011;21867;52.012;4.324;2023-09-18T05:27:44;8.47;;;7.40;;
35743;SDS011;21867;52.012;4.324;2023-09-18T05:30:12;12.60;;;7.77;;
35743;SDS011;21867;52.012;4.324;2023-09-18T05:32:39;10.17;;;8.43;;
35743;SDS011;21867;52.012;4.324;2023-09-18T05:35:07;8.43;;;7.40;;
35743;SDS011;21867;52.012;4.324;2023-09-18T05:37:34;10.03;;;7.00;;
35743;SDS011;21867;52.012;4.324;2023-09-18T05:40:02;10.50;;;7.27;;
35743;SDS011;21867;52.012;4.324;2023-09-18T05:42:31;7.47;;;6.67;;
35743;SDS011;21867;52.012;4.324;2023-09-18T05:44:58;10.07;;;7.87;;
35743;SDS011;21867;52.012;4.324;2023-09-18T05:47:26;9.77;;;8.77;;
35743;SDS011;21867;52.012;4.324;2023-09-18T05:49:53;9.60;;;7.50;;
35743;SDS011;21867;52.012;4.324;2023-09-18T05:52:20;9.50;;;8.53;;
35743;SDS011;21867;52.012;4.324;2023-09-18T05:54:48;10.50;;;9.50;;
35743;SDS011;21867;52.012;4.324;2023-09-18T05:57:15;11.73;;;8.70;;
35743;SDS011;21867;52.012;4.324;2023-09-18T05:59:44;9.63;;;8.63;;
35743;SDS011;21867;52.012;4.324;2023-09-18T06:02:11;10.47;;;9.50;;
35743;SDS011;21867;52.012;4.324;2023-09-18T06:04:42;11.47;;;9.77;;
35743;SDS011;21867;52.012;4.324;2023-09-18T06:07:09;11.43;;;10.27;;
35743;SDS011;21867;52.012;4.324;2023-09-18T06:09:37;14.20;;;10.80;;
35743;SDS011;21867;52.012;4.324;2023-09-18T06:12:04;12.70;;;11.40;;
35743;SDS011;21867;52.012;4.324;2023-09-18T06:14:31;12.40;;;11.13;;
35743;SDS011;21867;52.012;4.324;2023-09-18T06:17:00;11.50;;;10.33;;
35743;SDS011;21867;52.012;4.324;2023-09-18T06:19:27;18.40;;;13.17;;
35743;SDS011;21867;52.012;4.324;2023-09-18T06:21:55;14.93;;;12.60;;
35743;SDS011;21867;52.012;4.324;2023-09-18T06:24:22;13.27;;;11.03;;
35743;SDS011;21867;52.012;4.324;2023-09-18T06:26:49;11.27;;;9.87;;
35743;SDS011;21867;52.012;4.324;2023-09-18T06:29:16;12.87;;;10.87;;
35743;SDS011;21867;52.012;4.324;2023-09-18T06:31:44;11.43;;;9.70;;
35743;SDS011;21867;52.012;4.324;2023-09-18T06:34:13;11.93;;;8.93;;
35743;SDS011;21867;52.012;4.324;2023-09-18T06:36:40;10.07;;;7.83;;
35743;SDS011;21867;52.012;4.324;2023-09-18T06:39:07;11.43;;;7.90;;
35743;SDS011;21867;52.012;4.324;2023-09-18T06:41:35;9.80;;;7.30;;
35743;SDS011;21867;52.012;4.324;2023-09-18T06:44:05;11.90;;;7.47;;
35743;SDS011;21867;52.012;4.324;2023-09-18T06:46:33;14.57;;;7.03;;
35743;SDS011;21867;52.012;4.324;2023-09-18T06:49:00;7.63;;;6.53;;
35743;SDS011;21867;52.012;4.324;2023-09-18T06:51:29;8.50;;;6.67;;
35743;SDS011;21867;52.012;4.324;2023-09-18T06:54:02;6.90;;;6.30;;
35743;SDS011;21867;52.012;4.324;2023-09-18T06:56:29;8.33;;;5.13;;
35743;SDS011;21867;52.012;4.324;2023-09-18T06:58:57;5.17;;;4.67;;
35743;SDS011;21867;52.012;4.324;2023-09-18T07:01:24;5.27;;;4.63;;
35743;SDS011;21867;52.012;4.324;2023-09-18T07:03:52;7.73;;;3.87;;
35743;SDS011;21867;52.012;4.324;2023-09-18T07:06:19;5.87;;;3.70;;
35743;SDS011;21867;52.012;4.324;2023-09-18T07:08:48;5.20;;;4.00;;
35743;SDS011;21867;52.012;4.324;2023-09-18T07:11:15;9.27;;;4.57;;
35743;SDS011;21867;52.012;4.324;2023-09-18T07:13:43;6.43;;;4.10;;
35743;SDS011;21867;52.012;4.324;2023-09-18T07:16:10;5.37;;;3.90;;
35743;SDS011;21867;52.012;4.324;2023-09-18T07:18:38;5.93;;;3.50;;
35743;SDS011;21867;52.012;4.324;2023-09-18T07:21:05;6.53;;;4.87;;
35743;SDS011;21867;52.012;4.324;2023-09-18T07:23:32;9.07;;;4.23;;
35743;SDS011;21867;52.012;4.324;2023-09-18T07:26:01;6.37;;;4.07;;
35743;SDS011;21867;52.012;4.324;2023-09-18T07:28:29;4.20;;;3.60;;
35743;SDS011;21867;52.012;4.324;2023-09-18T07:30:56;4.53;;;4.10;;
35743;SDS011;21867;52.012;4.324;2023-09-18T07:33:23;4.17;;;3.33;;
35743;SDS011;21867;52.012;4.324;2023-09-18T07:35:51;6.00;;;3.47;;
35743;SDS011;21867;52.012;4.324;2023-09-18T07:38:18;3.80;;;3.50;;
35743;SDS011;21867;52.012;4.324;2023-09-18T07:40:46;6.13;;;3.97;;
35743;SDS011;21867;52.012;4.324;2023-09-18T07:43:14;5.50;;;3.37;;
35743;SDS011;21867;52.012;4.324;2023-09-18T07:45:42;3.70;;;3.40;;
35743;SDS011;21867;52.012;4.324;2023-09-18T07:48:09;3.87;;;2.67;;
35743;SDS011;21867;52.012;4.324;2023-09-18T07:50:37;4.50;;;2.77;;
35743;SDS011;21867;52.012;4.324;2023-09-18T07:53:04;5.77;;;2.70;;
35743;SDS011;21867;52.012;4.324;2023-09-18T07:55:31;4.30;;;2.67;;
35743;SDS011;21867;52.012;4.324;2023-09-18T07:57:59;4.77;;;2.63;;
35743;SDS011;21867;52.012;4.324;2023-09-18T08:00:28;3.50;;;2.77;;
35743;SDS011;21867;52.012;4.324;2023-09-18T08:02:55;3.70;;;2.93;;
35743;SDS011;21867;52.012;4.324;2023-09-18T08:08:13;4.13;;;2.77;;
35743;SDS011;21867;52.012;4.324;2023-09-18T08:10:40;5.13;;;3.70;;
35743;SDS011;21867;52.012;4.324;2023-09-18T08:13:07;7.30;;;2.97;;
35743;SDS011;21867;52.012;4.324;2023-09-18T08:15:36;4.60;;;2.70;;
35743;SDS011;21867;52.012;4.324;2023-09-18T08:18:04;3.33;;;2.40;;
35743;SDS011;21867;52.012;4.324;2023-09-18T08:27:17;4.60;;;2.43;;
35743;SDS011;21867;52.012;4.324;2023-09-18T08:29:44;3.57;;;3.27;;
35743;SDS011;21867;52.012;4.324;2023-09-18T08:32:13;6.37;;;2.97;;
35743;SDS011;21867;52.012;4.324;2023-09-18T08:34:40;6.97;;;2.80;;
35743;SDS011;21867;52.012;4.324;2023-09-18T08:37:08;5.17;;;3.30;;
35743;SDS011;21867;52.012;4.324;2023-09-18T08:42:47;4.40;;;2.80;;
35743;SDS011;21867;52.012;4.324;2023-09-18T08:45:15;5.10;;;2.97;;
35743;SDS011;21867;52.012;4.324;2023-09-18T08:47:47;4.27;;;2.70;;
35743;SDS011;21867;52.012;4.324;2023-09-18T08:57:01;8.20;;;3.27;;
35743;SDS011;21867;52.012;4.324;2023-09-18T08:59:28;6.93;;;3.60;;
35743;SDS011;21867;52.012;4.324;2023-09-18T09:01:56;7.13;;;3.43;;
35743;SDS011;21867;52.012;4.324;2023-09-18T09:04:25;4.03;;;3.23;;
35743;SDS011;21867;52.012;4.324;2023-09-18T09:06:52;11.40;;;3.30;;
35743;SDS011;21867;52.012;4.324;2023-09-18T09:12:11;3.40;;;3.07;;
35743;SDS011;21867;52.012;4.324;2023-09-18T09:14:38;5.97;;;2.77;;
35743;SDS011;21867;52.012;4.324;2023-09-18T09:17:05;5.27;;;3.00;;
35743;SDS011;21867;52.012;4.324;2023-09-18T09:23:28;3.53;;;2.50;;
35743;SDS011;21867;52.012;4.324;2023-09-18T09:26:11;8.43;;;2.73;;
35743;SDS011;21867;52.012;4.324;2023-09-18T09:28:39;5.67;;;3.20;;
35743;SDS011;21867;52.012;4.324;2023-09-18T09:31:06;4.33;;;3.63;;
35743;SDS011;21867;52.012;4.324;2023-09-18T09:33:33;5.90;;;2.63;;
35743;SDS011;21867;52.012;4.324;2023-09-18T09:36:03;7.97;;;3.10;;
35743;SDS011;21867;52.012;4.324;2023-09-18T10:03:41;6.77;;;3.20;;
35743;SDS011;21867;52.012;4.324;2023-09-18T10:06:09;7.05;;;3.60;;
35743;SDS011;21867;52.012;4.324;2023-09-18T10:08:37;6.43;;;3.60;;
35743;SDS011;21867;52.012;4.324;2023-09-18T10:11:06;4.20;;;3.80;;
35743;SDS011;21867;52.012;4.324;2023-09-18T10:13:36;3.17;;;2.87;;
35743;SDS011;21867;52.012;4.324;2023-09-18T10:16:05;7.00;;;3.50;;
35743;SDS011;21867;52.012;4.324;2023-09-18T10:18:36;3.90;;;3.50;;
35743;SDS011;21867;52.012;4.324;2023-09-18T10:21:09;5.00;;;3.60;;
35743;SDS011;21867;52.012;4.324;2023-09-18T10:26:28;5.80;;;3.00;;
35743;SDS011;21867;52.012;4.324;2023-09-18T10:29:00;9.00;;;3.13;;
35743;SDS011;21867;52.012;4.324;2023-09-18T10:31:30;5.40;;;3.22;;
35743;SDS011;21867;52.012;4.324;2023-09-18T10:34:00;4.30;;;2.73;;
35743;SDS011;21867;52.012;4.324;2023-09-18T10:36:33;5.25;;;2.55;;
35743;SDS011;21867;52.012;4.324;2023-09-18T10:39:04;4.07;;;2.70;;
35743;SDS011;21867;52.012;4.324;2023-09-18T10:41:32;4.57;;;2.70;;
35743;SDS011;21867;52.012;4.324;2023-09-18T10:43:59;4.82;;;2.70;;
35743;SDS011;21867;52.012;4.324;2023-09-18T10:46:28;6.07;;;2.53;;
35743;SDS011;21867;52.012;4.324;2023-09-18T10:48:55;3.00;;;2.70;;
35743;SDS011;21867;52.012;4.324;2023-09-18T10:51:23;4.88;;;2.67;;
35743;SDS011;21867;52.012;4.324;2023-09-18T10:54:09;4.78;;;3.10;;
35743;SDS011;21867;52.012;4.324;2023-09-18T10:59:49;3.17;;;2.25;;
35743;SDS011;21867;52.012;4.324;2023-09-18T11:02:16;4.28;;;2.83;;
35743;SDS011;21867;52.012;4.324;2023-09-18T11:04:44;5.57;;;2.47;;
35743;SDS011;21867;52.012;4.324;2023-09-18T11:07:19;2.90;;;2.70;;
35743;SDS011;21867;52.012;4.324;2023-09-18T11:09:48;5.82;;;2.65;;
35743;SDS011;21867;52.012;4.324;2023-09-18T11:12:15;4.90;;;2.80;;
35743;SDS011;21867;52.012;4.324;2023-09-18T11:14:43;4.65;;;2.63;;
35743;SDS011;21867;52.012;4.324;2023-09-18T11:20:08;5.25;;;2.80;;
35743;SDS011;21867;52.012;4.324;2023-09-18T11:28:59;4.40;;;2.65;;
35743;SDS011;21867;52.012;4.324;2023-09-18T11:34:13;5.38;;;2.65;;
35743;SDS011;21867;52.012;4.324;2023-09-18T11:36:41;4.47;;;2.78;;
35743;SDS011;21867;52.012;4.324;2023-09-18T11:39:09;3.90;;;2.83;;
35743;SDS011;21867;52.012;4.324;2023-09-18T11:46:54;4.35;;;2.65;;
35743;SDS011;21867;52.012;4.324;2023-09-18T11:49:21;6.05;;;2.58;;
35743;SDS011;21867;52.012;4.324;2023-09-18T11:51:49;3.65;;;2.65;;
35743;SDS011;21867;52.012;4.324;2023-09-18T11:54:17;9.13;;;2.88;;
35743;SDS011;21867;52.012;4.324;2023-09-18T11:56:45;5.80;;;2.67;;
35743;SDS011;21867;52.012;4.324;2023-09-18T11:59:12;4.78;;;2.53;;
35743;SDS011;21867;52.012;4.324;2023-09-18T12:04:29;3.25;;;2.83;;
35743;SDS011;21867;52.012;4.324;2023-09-18T12:06:56;8.45;;;2.80;;
35743;SDS011;21867;52.012;4.324;2023-09-18T12:09:23;8.45;;;3.30;;
35743;SDS011;21867;52.012;4.324;2023-09-18T12:11:53;4.93;;;2.67;;
35743;SDS011;21867;52.012;4.324;2023-09-18T12:14:20;3.60;;;2.47;;
35743;SDS011;21867;52.012;4.324;2023-09-18T12:19:50;8.93;;;3.40;;
35743;SDS011;21867;52.012;4.324;2023-09-18T12:22:22;5.07;;;3.38;;
35743;SDS011;21867;52.012;4.324;2023-09-18T12:24:49;5.15;;;3.63;;
35743;SDS011;21867;52.012;4.324;2023-09-18T12:31:04;3.65;;;3.35;;
35743;SDS011;21867;52.012;4.324;2023-09-18T12:33:33;6.30;;;3.72;;
35743;SDS011;21867;52.012;4.324;2023-09-18T12:36:03;3.78;;;3.33;;
35743;SDS011;21867;52.012;4.324;2023-09-18T12:38:30;3.58;;;2.78;;
35743;SDS011;21867;52.012;4.324;2023-09-18T12:40:58;4.65;;;2.90;;
35743;SDS011;21867;52.012;4.324;2023-09-18T12:43:26;4.63;;;3.40;;
35743;SDS011;21867;52.012;4.324;2023-09-18T12:46:09;4.40;;;2.90;;
35743;SDS011;21867;52.012;4.324;2023-09-18T12:48:37;7.90;;;2.88;;
35743;SDS011;21867;52.012;4.324;2023-09-18T12:51:06;4.53;;;3.17;;
35743;SDS011;21867;52.012;4.324;2023-09-18T12:53:33;4.10;;;2.97;;
35743;SDS011;21867;52.012;4.324;2023-09-18T13:02:38;3.85;;;2.50;;
35743;SDS011;21867;52.012;4.324;2023-09-18T13:05:06;3.88;;;2.80;;
35743;SDS011;21867;52.012;4.324;2023-09-18T13:07:42;4.80;;;3.00;;
35743;SDS011;21867;52.012;4.324;2023-09-18T13:10:10;7.00;;;2.90;;
35743;SDS011;21867;52.012;4.324;2023-09-18T13:12:40;4.97;;;2.80;;
35743;SDS011;21867;52.012;4.324;2023-09-18T13:17:50;2.80;;;2.60;;
35743;SDS011;21867;52.012;4.324;2023-09-18T13:20:20;4.63;;;3.00;;
35743;SDS011;21867;52.012;4.324;2023-09-18T13:22:50;5.60;;;3.25;;
35743;SDS011;21867;52.012;4.324;2023-09-18T13:25:20;5.22;;;2.97;;
35743;SDS011;21867;52.012;4.324;2023-09-18T13:27:48;3.22;;;2.08;;
35743;SDS011;21867;52.012;4.324;2023-09-18T13:37:31;3.97;;;2.50;;
35743;SDS011;21867;52.012;4.324;2023-09-18T13:40:00;3.42;;;2.53;;
35743;SDS011;21867;52.012;4.324;2023-09-18T13:42:28;4.15;;;2.47;;
35743;SDS011;21867;52.012;4.324;2023-09-18T13:44:56;6.00;;;2.85;;
35743;SDS011;21867;52.012;4.324;2023-09-18T13:47:23;4.45;;;2.63;;
35743;SDS011;21867;52.012;4.324;2023-09-18T13:52:38;3.70;;;2.55;;
35743;SDS011;21867;52.012;4.324;2023-09-18T13:55:07;4.05;;;2.17;;
35743;SDS011;21867;52.012;4.324;2023-09-18T13:57:35;2.70;;;2.20;;
35743;SDS011;21867;52.012;4.324;2023-09-18T14:06:52;7.97;;;3.03;;
35743;SDS011;21867;52.012;4.324;2023-09-18T14:09:19;3.75;;;2.92;;
35743;SDS011;21867;52.012;4.324;2023-09-18T14:11:48;3.63;;;2.50;;
35743;SDS011;21867;52.012;4.324;2023-09-18T14:14:19;4.30;;;2.17;;
35743;SDS011;21867;52.012;4.324;2023-09-18T14:16:50;6.50;;;1.80;;
35743;SDS011;21867;52.012;4.324;2023-09-18T14:19:23;3.90;;;1.90;;
35743;SDS011;21867;52.012;4.324;2023-09-18T14:21:51;4.88;;;1.65;;
35743;SDS011;21867;52.012;4.324;2023-09-18T14:24:18;6.17;;;1.73;;
35743;SDS011;21867;52.012;4.324;2023-09-18T14:26:58;5.25;;;1.90;;
35743;SDS011;21867;52.012;4.324;2023-09-18T14:29:25;6.67;;;2.10;;
35743;SDS011;21867;52.012;4.324;2023-09-18T14:31:57;2.88;;;1.63;;
35743;SDS011;21867;52.012;4.324;2023-09-18T14:37:07;3.53;;;1.80;;
35743;SDS011;21867;52.012;4.324;2023-09-18T14:39:34;8.10;;;2.50;;
35743;SDS011;21867;52.012;4.324;2023-09-18T14:42:03;3.45;;;1.77;;
35743;SDS011;21867;52.012;4.324;2023-09-18T14:44:30;4.17;;;1.60;;
35743;SDS011;21867;52.012;4.324;2023-09-18T14:46:58;5.53;;;2.03;;
35743;SDS011;21867;52.012;4.324;2023-09-18T14:56:39;6.47;;;2.43;;
35743;SDS011;21867;52.012;4.324;2023-09-18T14:59:08;9.93;;;2.70;;
35743;SDS011;21867;52.012;4.324;2023-09-18T15:01:35;9.00;;;2.40;;
35743;SDS011;21867;52.012;4.324;2023-09-18T15:04:03;6.75;;;2.10;;
35743;SDS011;21867;52.012;4.324;2023-09-18T15:06:30;5.53;;;1.97;;
35743;SDS011;21867;52.012;4.324;2023-09-18T15:11:47;5.03;;;2.07;;
35743;SDS011;21867;52.012;4.324;2023-09-18T15:14:16;5.95;;;1.75;;
35743;SDS011;21867;52.012;4.324;2023-09-18T15:16:43;3.08;;;1.33;;
35743;SDS011;21867;52.012;4.324;2023-09-18T15:26:31;7.35;;;2.58;;
35743;SDS011;21867;52.012;4.324;2023-09-18T15:28:58;5.37;;;2.33;;
35743;SDS011;21867;52.012;4.324;2023-09-18T15:31:27;6.93;;;2.10;;
35743;SDS011;21867;52.012;4.324;2023-09-18T15:33:55;6.50;;;2.40;;
35743;SDS011;21867;52.012;4.324;2023-09-18T15:36:22;6.07;;;2.50;;
35743;SDS011;21867;52.012;4.324;2023-09-18T15:38:49;6.23;;;2.43;;
35743;SDS011;21867;52.012;4.324;2023-09-18T15:41:17;6.70;;;3.00;;
35743;SDS011;21867;52.012;4.324;2023-09-18T15:43:44;3.77;;;1.90;;
35743;SDS011;21867;52.012;4.324;2023-09-18T15:46:11;6.18;;;1.83;;
35743;SDS011;21867;52.012;4.324;2023-09-18T15:48:40;5.80;;;2.23;;
35743;SDS011;21867;52.012;4.324;2023-09-18T15:51:08;5.90;;;2.17;;
35743;SDS011;21867;52.012;4.324;2023-09-18T15:53:36;6.77;;;2.13;;
35743;SDS011;21867;52.012;4.324;2023-09-18T15:56:04;5.17;;;1.90;;
35743;SDS011;21867;52.012;4.324;2023-09-18T15:58:31;8.10;;;2.20;;
35743;SDS011;21867;52.012;4.324;2023-09-18T16:00:58;5.63;;;2.30;;
35743;SDS011;21867;52.012;4.324;2023-09-18T16:03:25;3.50;;;1.93;;
35743;SDS011;21867;52.012;4.324;2023-09-18T16:05:54;7.28;;;2.50;;
35743;SDS011;21867;52.012;4.324;2023-09-18T16:08:22;4.40;;;2.55;;
35743;SDS011;21867;52.012;4.324;2023-09-18T16:10:49;7.37;;;2.57;;
35743;SDS011;21867;52.012;4.324;2023-09-18T16:13:17;4.87;;;2.80;;
35743;SDS011;21867;52.012;4.324;2023-09-18T16:16:03;8.03;;;2.97;;
35743;SDS011;21867;52.012;4.324;2023-09-18T16:18:31;5.87;;;2.63;;
35743;SDS011;21867;52.012;4.324;2023-09-18T16:21:00;8.67;;;2.60;;
35743;SDS011;21867;52.012;4.324;2023-09-18T16:23:27;12.20;;;3.47;;
35743;SDS011;21867;52.012;4.324;2023-09-18T16:25:54;9.40;;;2.87;;
35743;SDS011;21867;52.012;4.324;2023-09-18T16:28:22;11.37;;;3.73;;
35743;SDS011;21867;52.012;4.324;2023-09-18T16:30:49;12.93;;;3.10;;
35743;SDS011;21867;52.012;4.324;2023-09-18T16:33:17;8.43;;;3.00;;
35743;SDS011;21867;52.012;4.324;2023-09-18T16:35:44;12.93;;;3.57;;
35743;SDS011;21867;52.012;4.324;2023-09-18T16:38:13;12.43;;;4.07;;
35743;SDS011;21867;52.012;4.324;2023-09-18T16:40:40;8.33;;;3.13;;
35743;SDS011;21867;52.012;4.324;2023-09-18T16:43:07;9.20;;;3.03;;
35743;SDS011;21867;52.012;4.324;2023-09-18T16:45:35;13.40;;;4.00;;
35743;SDS011;21867;52.012;4.324;2023-09-18T16:48:02;13.63;;;3.77;;
35743;SDS011;21867;52.012;4.324;2023-09-18T16:50:30;13.93;;;4.30;;
35743;SDS011;21867;52.012;4.324;2023-09-18T16:52:57;13.17;;;3.50;;
35743;SDS011;21867;52.012;4.324;2023-09-18T16:55:26;13.77;;;3.30;;
35743;SDS011;21867;52.012;4.324;2023-09-18T16:57:53;12.40;;;3.00;;
35743;SDS011;21867;52.012;4.324;2023-09-18T17:00:20;12.77;;;3.57;;
35743;SDS011;21867;52.012;4.324;2023-09-18T17:02:48;11.27;;;3.00;;
35743;SDS011;21867;52.012;4.324;2023-09-18T17:05:16;14.70;;;4.40;;
35743;SDS011;21867;52.012;4.324;2023-09-18T17:07:43;11.23;;;3.87;;
35743;SDS011;21867;52.012;4.324;2023-09-18T17:10:10;9.43;;;3.57;;
35743;SDS011;21867;52.012;4.324;2023-09-18T17:12:39;14.73;;;4.80;;
35743;SDS011;21867;52.012;4.324;2023-09-18T17:15:07;16.50;;;4.30;;
35743;SDS011;21867;52.012;4.324;2023-09-18T17:17:34;13.30;;;4.07;;
35743;SDS011;21867;52.012;4.324;2023-09-18T17:20:02;16.07;;;4.57;;
35743;SDS011;21867;52.012;4.324;2023-09-18T17:22:29;13.60;;;4.70;;
35743;SDS011;21867;52.012;4.324;2023-09-18T17:24:56;14.23;;;4.03;;
35743;SDS011;21867;52.012;4.324;2023-09-18T17:27:23;17.37;;;4.17;;
35743;SDS011;21867;52.012;4.324;2023-09-18T17:29:52;16.37;;;3.63;;
35743;SDS011;21867;52.012;4.324;2023-09-18T17:32:23;15.50;;;3.70;;
35743;SDS011;21867;52.012;4.324;2023-09-18T17:34:51;16.00;;;4.13;;
35743;SDS011;21867;52.012;4.324;2023-09-18T17:37:18;14.40;;;3.37;;
35743;SDS011;21867;52.012;4.324;2023-09-18T17:39:45;18.33;;;4.03;;
35743;SDS011;21867;52.012;4.324;2023-09-18T17:42:13;14.57;;;3.67;;
35743;SDS011;21867;52.012;4.324;2023-09-18T17:44:40;15.50;;;4.50;;
35743;SDS011;21867;52.012;4.324;2023-09-18T17:47:09;18.30;;;4.60;;
35743;SDS011;21867;52.012;4.324;2023-09-18T17:49:36;13.03;;;4.50;;
35743;SDS011;21867;52.012;4.324;2023-09-18T17:52:04;20.87;;;5.50;;
35743;SDS011;21867;52.012;4.324;2023-09-18T17:54:31;17.37;;;4.73;;
35743;SDS011;21867;52.012;4.324;2023-09-18T17:56:59;16.00;;;4.60;;
35743;SDS011;21867;52.012;4.324;2023-09-18T17:59:26;20.17;;;5.23;;
35743;SDS011;21867;52.012;4.324;2023-09-18T18:01:54;14.57;;;3.77;;
35743;SDS011;21867;52.012;4.324;2023-09-18T18:04:23;18.33;;;4.93;;
35743;SDS011;21867;52.012;4.324;2023-09-18T18:06:50;13.03;;;3.80;;
35743;SDS011;21867;52.012;4.324;2023-09-18T18:09:17;17.47;;;4.67;;
35743;SDS011;21867;52.012;4.324;2023-09-18T18:11:45;17.30;;;4.53;;
35743;SDS011;21867;52.012;4.324;2023-09-18T18:14:12;11.80;;;4.10;;
35743;SDS011;21867;52.012;4.324;2023-09-18T18:16:39;18.03;;;4.90;;
35743;SDS011;21867;52.012;4.324;2023-09-18T18:19:07;16.63;;;4.37;;
35743;SDS011;21867;52.012;4.324;2023-09-18T18:21:35;20.40;;;5.67;;
35743;SDS011;21867;52.012;4.324;2023-09-18T18:24:03;14.17;;;3.63;;
35743;SDS011;21867;52.012;4.324;2023-09-18T18:26:31;14.00;;;4.07;;
35743;SDS011;21867;52.012;4.324;2023-09-18T18:28:58;13.17;;;4.10;;
35743;SDS011;21867;52.012;4.324;2023-09-18T18:31:26;10.57;;;3.37;;